PDT,Max TemperatureF,Mean TemperatureF,Min TemperatureF,Max Dew PointF,MeanDew PointF,Min DewpointF,Max Humidity, Mean Humidity, Min Humidity, Max Sea Level PressureIn, Mean Sea Level PressureIn, Min Sea Level PressureIn, Max VisibilityMiles, Mean VisibilityMiles, Min VisibilityMiles, Max Wind SpeedMPH, Mean Wind SpeedMPH, Max Gust SpeedMPH,PrecipitationIn, CloudCover, Events, WindDirDegrees
2013-10-1,74,58,42,51,48,43,93,69,44,30.00,29.94,29.89,10,10,10,14,6,30,0.00,0,,216
2013-10-2,76,60,44,50,46,41,93,63,33,29.98,29.93,29.90,10,10,10,18,6,22,0.00,0,,230
2013-10-3,77,59,40,42,32,23,86,50,14,30.06,29.99,29.93,10,10,10,30,13,37,0.00,0,,14
2013-10-4,84,69,53,33,25,19,41,26,10,30.07,30.01,29.96,10,10,10,37,14,44,0.00,0,,21
2013-10-5,85,64,43,36,27,21,50,30,10,30.18,30.12,30.08,10,10,10,12,4,,0.00,0,,91
2013-10-6,85,64,42,46,35,28,72,43,13,30.11,30.04,29.97,10,10,10,14,4,33,0.00,1,,113
2013-10-7,81,62,42,52,41,32,80,50,20,29.97,29.91,29.84,10,10,10,15,5,25,0.00,0,,192
2013-10-8,74,59,43,52,46,40,96,66,35,29.89,29.80,29.68,10,10,9,20,5,48,0.00,0,,171
2013-10-9,70,55,39,46,42,40,93,65,36,29.73,29.65,29.61,10,9,1,15,5,18,0.00,1,,225
2013-10-10,66,54,41,51,48,41,92,76,60,29.99,29.87,29.73,10,10,8,16,5,100,0.00,0,,190
2013-10-11,68,54,39,51,45,39,100,76,52,30.09,30.03,29.96,10,6,0,13,4,15,0.00,3,Fog,210
2013-10-12,67,55,43,51,47,42,93,73,52,30.02,29.96,29.86,10,7,0,17,6,,0.00,4,Fog,255
2013-10-13,74,57,39,50,42,38,93,61,29,30.04,29.97,29.90,10,10,10,15,5,17,0.00,0,,179
2013-10-14,77,57,37,46,39,34,92,59,25,30.10,30.04,29.98,10,10,10,10,3,,0.00,0,,224
2013-10-15,84,61,37,42,34,22,85,48,10,30.03,29.98,29.92,10,10,10,13,3,16,0.00,0,,52
2013-10-16,80,59,38,45,35,31,76,47,18,30.07,30.02,29.98,10,10,10,10,3,13,0.00,0,,238
2013-10-17,80,59,38,44,36,31,79,48,17,30.07,30.00,29.93,10,10,9,12,3,13,0.00,0,,196
2013-10-18,77,58,39,52,43,37,100,63,26,30.04,29.99,29.96,10,10,4,9,3,16,0.00,0,,179
2013-10-19,81,60,39,50,43,38,100,64,28,30.06,30.01,29.96,10,10,10,9,3,20,0.00,0,,194
2013-10-20,74,57,40,52,46,42,100,69,38,30.03,29.97,29.88,10,6,0,12,4,30,0.00,1,Fog,164
2013-10-21,69,56,42,52,48,43,100,75,49,30.02,29.96,29.89,10,6,0,76,3,,0.00,4,Fog,225
2013-10-22,72,55,38,53,46,39,100,72,44,30.03,29.98,29.89,10,4,0,13,3,40,0.00,3,Fog,179
2013-10-23,67,55,43,52,46,43,100,78,56,29.99,29.94,29.87,10,4,0,14,4,32,0.00,3,Fog,213
2013-10-24,65,56,47,51,46,43,93,73,52,30.08,30.01,29.96,10,10,7,144,13,146,0.00,5,,268
2013-10-25,70,54,37,49,42,37,100,74,47,30.17,30.12,30.06,10,5,0,33,4,99,0.00,0,Fog,53
2013-10-26,77,58,39,51,44,38,100,67,33,30.13,30.06,29.98,10,10,9,15,4,23,0.00,0,,200
2013-10-27,65,53,41,49,46,41,100,76,52,30.00,29.88,29.61,10,7,0,32,13,47,0.01,4,Fog,241
2013-10-28,64,50,36,47,43,36,93,71,48,29.83,29.71,29.64,10,10,10,31,9,41,0.00,0,,217
2013-10-29,62,50,38,47,43,39,100,76,51,30.04,29.94,29.83,10,10,5,14,4,32,0.00,2,,265
2013-10-30,66,51,35,48,40,34,100,71,42,30.16,30.10,30.04,10,5,0,22,4,25,0.00,2,Fog,228
2013-10-31,72,54,35,46,40,34,92,63,34,30.16,30.10,30.04,10,10,7,20,3,25,0.00,0,,212